Time;durP1;ratioP1;P1;durP2;ratioP2;P2;SDS_P1;SDS_P2;PMS_P1;PMS_P2;Temp;Humidity;BMP_temperature;BMP_pressure;BME280_temperature;BME280_humidity;BME280_pressure;Samples;Min_cycle;Max_cycle;Signal;HPM_P1;HPM_P2
2023/09/01 00:00:41;;;;;;;4.05;1.00;;;11.90;99.90;;;;;;6120055;23;20429;-66
2023/09/01 00:03:10;;;;;;;4.07;1.05;;;11.80;99.90;;;;;;6121086;23;20017;-66
2023/09/01 00:05:36;;;;;;;2.65;0.90;;;11.90;99.90;;;;;;6070335;23;20028;-66
2023/09/01 00:08:02;;;;;;;1.85;0.90;;;11.80;99.90;;;;;;6119217;23;20088;-66
2023/09/01 00:10:28;;;;;;;1.52;1.02;;;11.80;99.90;;;;;;6093885;23;20026;-66
2023/09/01 00:12:54;;;;;;;1.83;0.98;;;11.80;99.90;;;;;;6120258;23;20068;-66
2023/09/01 00:15:20;;;;;;;4.20;0.95;;;11.80;99.90;;;;;;6070044;23;20041;-66
2023/09/01 00:17:45;;;;;;;2.80;1.40;;;11.80;99.90;;;;;;6094093;23;20353;-66
2023/09/01 00:20:11;;;;;;;3.28;1.00;;;11.80;99.90;;;;;;6120335;23;20014;-66
2023/09/01 00:22:37;;;;;;;2.78;0.95;;;11.80;99.90;;;;;;6120990;23;20013;-66
2023/09/01 00:25:03;;;;;;;5.38;1.40;;;11.80;99.90;;;;;;6120067;23;20022;-66
2023/09/01 00:27:29;;;;;;;5.20;1.42;;;11.80;99.90;;;;;;6093929;23;20040;-66
2023/09/01 00:29:54;;;;;;;1.75;1.05;;;11.80;99.90;;;;;;6119861;23;20014;-66
2023/09/01 00:32:20;;;;;;;3.90;1.55;;;11.80;99.90;;;;;;6094593;23;20010;-66
2023/09/01 00:34:45;;;;;;;3.17;1.58;;;11.90;99.90;;;;;;6094660;23;20010;-66
2023/09/01 00:37:11;;;;;;;4.32;1.77;;;11.90;99.90;;;;;;6093824;23;20025;-66
2023/09/01 00:39:36;;;;;;;3.17;1.63;;;11.80;99.90;;;;;;6094371;23;20033;-66
2023/09/01 00:42:02;;;;;;;4.85;1.58;;;11.90;99.90;;;;;;6119496;23;20344;-66
2023/09/01 00:44:28;;;;;;;2.42;1.30;;;11.80;99.90;;;;;;6120886;23;20013;-66
2023/09/01 00:46:54;;;;;;;4.07;1.48;;;11.80;99.90;;;;;;6093318;23;20510;-66
2023/09/01 00:49:20;;;;;;;3.05;1.17;;;11.80;99.90;;;;;;6120445;23;20444;-66
2023/09/01 00:51:47;;;;;;;10.55;1.75;;;11.80;99.90;;;;;;6093937;23;20014;-66
2023/09/01 00:54:14;;;;;;;5.47;2.13;;;11.70;99.90;;;;;;6120882;23;20021;-66
2023/09/01 00:56:41;;;;;;;2.17;1.35;;;11.70;99.90;;;;;;6068706;23;20014;-66
2023/09/01 00:59:06;;;;;;;2.35;1.60;;;11.70;99.90;;;;;;6120597;23;20079;-66
2023/09/01 01:01:33;;;;;;;1.75;1.02;;;11.70;99.90;;;;;;6119361;23;20017;-66
2023/09/01 01:04:00;;;;;;;3.10;1.25;;;11.70;99.90;;;;;;6093983;23;20021;-66
2023/09/01 01:06:58;;;;;;;1.80;1.35;;;11.70;99.90;;;;;;6118172;23;20014;-66
2023/09/01 01:10:03;;;;;;;3.50;1.50;;;11.70;99.90;;;;;;6119402;23;20064;-66
2023/09/01 01:12:50;;;;;;;2.70;1.50;;;11.70;99.90;;;;;;6094082;23;20449;-66
2023/09/01 01:15:19;;;;;;;3.17;1.45;;;11.70;99.90;;;;;;6093803;23;20453;-66
2023/09/01 01:17:46;;;;;;;3.88;1.70;;;11.70;99.90;;;;;;6119304;23;20507;-66
2023/09/01 01:20:31;;;;;;;5.82;1.42;;;11.70;99.90;;;;;;6119992;23;20071;-66
2023/09/01 01:23:09;;;;;;;2.97;2.00;;;11.60;99.90;;;;;;6094620;23;20021;-66
2023/09/01 01:25:35;;;;;;;3.00;1.80;;;11.60;99.90;;;;;;6093566;23;20017;-66
2023/09/01 01:28:08;;;;;;;2.25;1.30;;;11.60;99.90;;;;;;6092442;23;20018;-66
2023/09/01 01:30:34;;;;;;;1.83;1.08;;;11.60;99.90;;;;;;6119769;23;20077;-66
2023/09/01 01:33:00;;;;;;;4.35;1.38;;;11.60;99.90;;;;;;6120376;23;20013;-66
2023/09/01 01:35:38;;;;;;;2.28;1.30;;;11.60;99.90;;;;;;6093693;23;20021;-66
2023/09/01 01:38:25;;;;;;;3.65;1.35;;;11.50;99.90;;;;;;6093589;23;20018;-66
2023/09/01 01:40:55;;;;;;;3.28;1.45;;;11.60;99.90;;;;;;6119273;23;20010;-66
2023/09/01 01:43:26;;;;;;;2.33;1.70;;;11.60;99.90;;;;;;6094535;23;20018;-66
2023/09/01 01:45:54;;;;;;;3.10;1.70;;;11.60;99.90;;;;;;6093976;23;20021;-66
2023/09/01 01:48:19;;;;;;;2.50;2.15;;;11.60;99.90;;;;;;6119236;23;20089;-66
2023/09/01 01:50:45;;;;;;;4.90;2.30;;;11.60;99.90;;;;;;6118930;23;20046;-66
2023/09/01 01:53:13;;;;;;;2.88;2.38;;;11.70;99.90;;;;;;6120321;23;20041;-66
2023/09/01 01:55:38;;;;;;;3.08;1.90;;;11.70;99.90;;;;;;6119999;23;20017;-66
2023/09/01 01:58:07;;;;;;;4.50;2.40;;;11.70;99.90;;;;;;6092830;23;20060;-66
2023/09/01 02:00:32;;;;;;;6.20;2.60;;;11.70;99.90;;;;;;6093490;23;20017;-66
2023/09/01 02:02:58;;;;;;;6.15;3.42;;;11.80;99.90;;;;;;6120073;23;20380;-66
2023/09/01 02:05:25;;;;;;;4.88;2.38;;;11.80;99.90;;;;;;6119335;23;20018;-66
2023/09/01 02:07:51;;;;;;;2.90;2.45;;;11.80;99.90;;;;;;6092597;23;20022;-66
2023/09/01 02:10:17;;;;;;;2.22;2.03;;;11.80;99.90;;;;;;6093634;23;20136;-66
2023/09/01 02:12:43;;;;;;;2.85;2.38;;;11.80;99.90;;;;;;6120271;23;20018;-66
2023/09/01 02:15:10;;;;;;;2.70;1.80;;;11.90;99.90;;;;;;6119077;23;20029;-66
2023/09/01 02:17:36;;;;;;;6.00;2.47;;;11.80;99.90;;;;;;6117929;23;20025;-66
2023/09/01 02:20:16;;;;;;;3.30;2.20;;;11.80;99.90;;;;;;6119390;23;20022;-66
2023/09/01 02:22:45;;;;;;;2.40;1.88;;;11.80;99.90;;;;;;6094134;23;20018;-66
2023/09/01 02:25:12;;;;;;;3.40;2.60;;;11.80;99.90;;;;;;6119483;23;20014;-66
2023/09/01 02:27:39;;;;;;;4.25;2.08;;;11.80;99.90;;;;;;6119172;23;20018;-66
2023/09/01 02:30:08;;;;;;;4.35;2.38;;;11.80;99.90;;;;;;6119605;23;20111;-66
2023/09/01 02:32:33;;;;;;;2.78;2.22;;;11.80;99.90;;;;;;6093337;23;20081;-66
2023/09/01 02:34:59;;;;;;;3.72;2.67;;;11.80;99.90;;;;;;6119165;23;20099;-66
2023/09/01 02:37:24;;;;;;;4.22;2.60;;;11.80;99.90;;;;;;6119212;23;20018;-66
2023/09/01 02:39:50;;;;;;;3.17;2.15;;;11.80;99.90;;;;;;6119293;23;20440;-66
2023/09/01 02:42:15;;;;;;;4.07;2.63;;;11.90;99.90;;;;;;6093892;23;20033;-66
2023/09/01 02:44:41;;;;;;;4.10;2.47;;;11.90;99.90;;;;;;6093738;23;20026;-66
2023/09/01 02:47:07;;;;;;;3.53;2.30;;;11.90;99.90;;;;;;6117319;23;20024;-66
2023/09/01 02:49:32;;;;;;;4.15;2.13;;;11.90;99.90;;;;;;6119921;23;20119;-66
2023/09/01 02:51:58;;;;;;;6.00;2.55;;;11.90;99.90;;;;;;6093201;23;20107;-66
2023/09/01 02:54:23;;;;;;;4.22;2.45;;;11.80;99.90;;;;;;6093218;23;20014;-66
2023/09/01 02:56:49;;;;;;;4.10;2.05;;;11.80;99.90;;;;;;6092251;23;20014;-66
2023/09/01 02:59:14;;;;;;;2.58;1.75;;;11.80;99.90;;;;;;6094156;23;20025;-66
2023/09/01 03:01:40;;;;;;;2.75;1.95;;;11.80;99.90;;;;;;6092149;23;20424;-66
2023/09/01 03:04:07;;;;;;;1.83;1.60;;;11.80;99.90;;;;;;6093085;23;20040;-66
2023/09/01 03:06:34;;;;;;;2.67;1.60;;;11.80;99.90;;;;;;6118330;23;20417;-66
2023/09/01 03:08:59;;;;;;;2.95;2.75;;;11.80;99.90;;;;;;6119376;23;20021;-66
2023/09/01 03:11:25;;;;;;;4.45;2.33;;;11.80;99.90;;;;;;6092338;23;20053;-66
2023/09/01 03:13:51;;;;;;;4.90;2.25;;;11.80;99.90;;;;;;6119597;23;20010;-66
2023/09/01 03:16:16;;;;;;;4.28;2.55;;;11.80;99.90;;;;;;6092021;23;20014;-66
2023/09/01 03:18:42;;;;;;;4.72;2.90;;;11.80;99.90;;;;;;6117899;23;20492;-66
2023/09/01 03:21:10;;;;;;;5.05;2.85;;;11.80;99.90;;;;;;6093048;23;20022;-66
2023/09/01 03:23:35;;;;;;;3.50;2.33;;;11.70;99.90;;;;;;6093688;23;20516;-66
2023/09/01 03:26:01;;;;;;;6.47;2.45;;;11.70;99.90;;;;;;6118381;23;20064;-66
2023/09/01 03:28:27;;;;;;;3.13;1.98;;;11.70;99.90;;;;;;6119104;23;20054;-66
2023/09/01 03:30:52;;;;;;;2.15;1.92;;;11.60;99.90;;;;;;6119413;23;20017;-66
2023/09/01 03:33:21;;;;;;;1.88;1.50;;;11.60;99.90;;;;;;6120826;23;20007;-66
2023/09/01 03:35:47;;;;;;;5.15;2.50;;;11.60;99.90;;;;;;6094458;23;20041;-66
2023/09/01 03:38:13;;;;;;;3.28;2.05;;;11.60;99.90;;;;;;6119809;23;20014;-66
2023/09/01 03:40:38;;;;;;;4.35;2.88;;;11.60;99.90;;;;;;6120256;23;20444;-66
2023/09/01 03:43:07;;;;;;;4.85;2.65;;;11.50;99.90;;;;;;6120821;23;20018;-66
2023/09/01 03:45:32;;;;;;;3.00;1.73;;;11.60;99.90;;;;;;6094007;23;20017;-66
2023/09/01 03:47:58;;;;;;;4.30;2.28;;;11.50;99.90;;;;;;6094062;23;20014;-66
2023/09/01 03:50:23;;;;;;;4.78;1.80;;;11.50;99.90;;;;;;6119790;23;20024;-66
2023/09/01 03:52:49;;;;;;;4.25;2.38;;;11.50;99.90;;;;;;6121099;23;20129;-66
2023/09/01 03:55:15;;;;;;;2.95;1.90;;;11.50;99.90;;;;;;6120533;23;20010;-66
2023/09/01 03:57:40;;;;;;;2.13;1.92;;;11.40;99.90;;;;;;6119730;23;20014;-66
2023/09/01 04:00:09;;;;;;;3.67;1.77;;;11.40;99.90;;;;;;6093251;23;20026;-66
2023/09/01 04:02:35;;;;;;;2.58;2.03;;;11.40;99.90;;;;;;6094110;23;20014;-66
2023/09/01 04:05:01;;;;;;;3.95;2.72;;;11.40;99.90;;;;;;6119775;23;20018;-66
2023/09/01 04:07:26;;;;;;;5.28;2.22;;;11.40;99.90;;;;;;6119452;23;20014;-66
2023/09/01 04:09:52;;;;;;;1.92;1.73;;;11.40;99.90;;;;;;6120272;23;20010;-66
2023/09/01 04:12:18;;;;;;;2.97;1.88;;;11.30;99.90;;;;;;6119997;23;20378;-66
2023/09/01 04:14:44;;;;;;;2.40;2.20;;;11.30;99.90;;;;;;6119009;23;20101;-66
2023/09/01 04:17:09;;;;;;;2.67;2.35;;;11.30;99.90;;;;;;6118834;23;20038;-65
2023/09/01 04:19:35;;;;;;;6.13;2.10;;;11.20;99.90;;;;;;6120690;23;20022;-66
2023/09/01 04:22:01;;;;;;;2.22;1.92;;;11.30;99.90;;;;;;6120565;23;20017;-66
2023/09/01 04:24:26;;;;;;;3.38;2.42;;;11.20;99.90;;;;;;6120699;23;20014;-66
2023/09/01 04:26:52;;;;;;;6.10;2.58;;;11.20;99.90;;;;;;6118993;23;20018;-66
2023/09/01 04:29:18;;;;;;;4.93;2.08;;;11.20;99.90;;;;;;6120206;23;20071;-66
2023/09/01 04:31:43;;;;;;;2.65;2.20;;;11.20;99.90;;;;;;6093842;23;20010;-65
2023/09/01 04:34:10;;;;;;;3.85;2.13;;;11.20;99.90;;;;;;6120634;23;20056;-66
2023/09/01 04:36:36;;;;;;;2.33;1.85;;;11.20;99.90;;;;;;6118755;23;20017;-66
2023/09/01 04:39:04;;;;;;;1.50;1.40;;;11.20;99.90;;;;;;6093682;23;20101;-66
2023/09/01 04:41:30;;;;;;;1.80;1.70;;;11.20;99.90;;;;;;6093557;23;20014;-65
2023/09/01 04:43:56;;;;;;;3.72;1.58;;;11.20;99.90;;;;;;6119886;23;20018;-66
2023/09/01 04:46:22;;;;;;;2.45;2.25;;;11.20;99.90;;;;;;6120553;23;20014;-66
2023/09/01 04:48:47;;;;;;;2.42;2.22;;;11.30;99.90;;;;;;6094374;23;20013;-66
2023/09/01 04:51:13;;;;;;;4.43;2.92;;;11.30;99.90;;;;;;6095174;23;20498;-66
2023/09/01 04:53:38;;;;;;;4.22;3.17;;;11.30;99.90;;;;;;6120344;23;20010;-66
2023/09/01 04:56:04;;;;;;;3.40;3.10;;;11.30;99.90;;;;;;6094643;23;20075;-66
2023/09/01 04:58:30;;;;;;;6.57;3.15;;;11.40;99.90;;;;;;6120425;23;20070;-66
2023/09/01 05:00:56;;;;;;;5.15;3.55;;;11.40;99.90;;;;;;6093679;23;20018;-66
2023/09/01 05:03:22;;;;;;;5.78;3.65;;;11.40;99.90;;;;;;6094553;23;20014;-66
2023/09/01 05:05:49;;;;;;;5.32;3.85;;;11.40;99.90;;;;;;6120048;23;20018;-65
2023/09/01 05:08:15;;;;;;;4.43;3.53;;;11.40;99.90;;;;;;6093932;23;20045;-65
2023/09/01 05:10:40;;;;;;;6.18;3.63;;;11.40;99.90;;;;;;6120476;23;20025;-66
2023/09/01 05:13:06;;;;;;;3.55;3.00;;;11.50;99.90;;;;;;6120442;23;20010;-66
2023/09/01 05:15:32;;;;;;;5.65;2.55;;;11.40;99.90;;;;;;6094076;23;20022;-66
2023/09/01 05:17:57;;;;;;;4.93;3.42;;;11.40;99.90;;;;;;6119645;23;20014;-66
2023/09/01 05:20:23;;;;;;;4.07;2.88;;;11.50;99.90;;;;;;6120599;23;20026;-66
2023/09/01 05:22:48;;;;;;;3.95;3.15;;;11.60;99.90;;;;;;6120301;23;20014;-66
2023/09/01 05:25:14;;;;;;;3.97;3.05;;;11.80;99.90;;;;;;6120161;23;20053;-66
2023/09/01 05:27:40;;;;;;;3.47;3.17;;;12.00;99.90;;;;;;6119756;23;20042;-66
2023/09/01 05:30:07;;;;;;;8.27;4.10;;;12.20;99.90;;;;;;6119969;23;20089;-66
2023/09/01 05:32:33;;;;;;;3.50;2.30;;;12.30;99.90;;;;;;6094316;23;20017;-66
2023/09/01 05:34:59;;;;;;;3.40;3.10;;;12.40;99.90;;;;;;6120236;23;20052;-66
2023/09/01 05:37:24;;;;;;;4.32;2.50;;;12.60;99.90;;;;;;6119854;23;20010;-66
2023/09/01 05:39:50;;;;;;;3.03;2.63;;;12.80;99.90;;;;;;6093816;23;20028;-66
2023/09/01 05:42:16;;;;;;;6.25;2.70;;;12.90;99.90;;;;;;6119795;23;20014;-66
2023/09/01 05:44:42;;;;;;;4.90;2.10;;;12.90;99.90;;;;;;6093296;23;20030;-66
2023/09/01 05:47:07;;;;;;;3.00;2.35;;;13.00;99.90;;;;;;6093083;23;20029;-66
2023/09/01 05:49:34;;;;;;;4.30;1.80;;;13.00;99.90;;;;;;6117739;23;20014;-66
2023/09/01 05:52:01;;;;;;;2.33;2.05;;;13.10;99.90;;;;;;6118927;23;20133;-66
2023/09/01 05:54:26;;;;;;;4.68;2.58;;;13.20;99.90;;;;;;6094004;23;20029;-66
2023/09/01 05:56:52;;;;;;;5.75;2.72;;;13.30;99.90;;;;;;6119669;23;20018;-66
2023/09/01 05:59:18;;;;;;;3.95;2.40;;;13.50;99.90;;;;;;6094039;23;20013;-66
2023/09/01 06:01:44;;;;;;;5.75;2.50;;;13.80;99.90;;;;;;6093586;23;20025;-66
2023/09/01 06:04:09;;;;;;;4.40;2.45;;;14.00;99.90;;;;;;6093912;23;20018;-66
2023/09/01 06:06:36;;;;;;;3.78;2.15;;;14.00;99.90;;;;;;6093957;23;20022;-66
2023/09/01 06:09:04;;;;;;;3.42;2.40;;;14.10;99.90;;;;;;6093856;23;20030;-66
2023/09/01 06:11:30;;;;;;;4.72;2.25;;;14.50;99.90;;;;;;6093336;23;20018;-66
2023/09/01 06:13:56;;;;;;;4.80;2.25;;;15.00;99.90;;;;;;6119914;23;20381;-66
2023/09/01 06:16:21;;;;;;;4.40;1.88;;;15.00;99.90;;;;;;6119783;23;20013;-66
2023/09/01 06:18:47;;;;;;;2.97;2.20;;;15.10;99.90;;;;;;6093388;23;20090;-66
2023/09/01 06:21:16;;;;;;;3.13;1.85;;;15.50;99.90;;;;;;6093790;23;20022;-66
2023/09/01 06:23:44;;;;;;;3.78;2.25;;;16.10;99.90;;;;;;6094135;23;20014;-66
2023/09/01 06:26:20;;;;;;;3.25;1.98;;;16.40;99.90;;;;;;6119432;23;20017;-66
2023/09/01 06:28:47;;;;;;;5.40;2.40;;;17.00;99.90;;;;;;6119090;23;20028;-66
2023/09/01 06:31:13;;;;;;;6.47;2.30;;;18.00;99.90;;;;;;6093713;23;20310;-66
2023/09/01 06:33:43;;;;;;;5.10;2.70;;;18.40;99.90;;;;;;6093695;23;20017;-66
2023/09/01 06:36:13;;;;;;;3.40;2.60;;;18.30;99.90;;;;;;6119131;23;20056;-66
2023/09/01 06:38:42;;;;;;;7.45;3.17;;;18.20;99.90;;;;;;6119278;23;20010;-66
2023/09/01 06:41:08;;;;;;;5.90;2.83;;;17.80;99.90;;;;;;6092634;23;20021;-66
2023/09/01 06:43:34;;;;;;;8.80;4.20;;;17.50;99.90;;;;;;6093573;23;20014;-66
2023/09/01 06:46:00;;;;;;;6.78;4.03;;;17.40;99.90;;;;;;6119419;23;20007;-66
2023/09/01 06:48:26;;;;;;;9.18;4.97;;;17.30;99.90;;;;;;6119197;23;20018;-66
2023/09/01 06:50:51;;;;;;;7.50;5.05;;;17.30;99.90;;;;;;6092865;23;20021;-66
2023/09/01 06:53:17;;;;;;;6.60;4.25;;;17.30;99.90;;;;;;6119847;23;20010;-66
2023/09/01 06:55:45;;;;;;;7.63;4.32;;;17.40;99.90;;;;;;6093147;23;20010;-66
2023/09/01 06:58:10;;;;;;;7.95;6.03;;;17.50;99.90;;;;;;6118818;23;20082;-66
2023/09/01 07:00:36;;;;;;;5.20;4.32;;;17.60;99.90;;;;;;6092359;23;20053;-65
2023/09/01 07:03:02;;;;;;;6.68;4.65;;;17.60;99.90;;;;;;6117822;23;20028;-66
2023/09/01 07:05:28;;;;;;;4.97;4.57;;;17.80;99.90;;;;;;6093719;23;20036;-65
2023/09/01 07:07:54;;;;;;;4.82;4.15;;;17.90;99.90;;;;;;6119311;23;20061;-66
2023/09/01 07:10:20;;;;;;;5.70;5.07;;;18.20;99.90;;;;;;6093142;23;20018;-66
2023/09/01 07:12:46;;;;;;;6.75;5.93;;;18.50;99.90;;;;;;6093877;23;20089;-66
2023/09/01 07:15:12;;;;;;;8.82;6.10;;;18.80;99.90;;;;;;6093364;23;20018;-66
2023/09/01 07:17:38;;;;;;;7.47;6.70;;;18.70;99.90;;;;;;6093052;23;20006;-66
2023/09/01 07:20:04;;;;;;;9.25;6.82;;;18.60;99.90;;;;;;6119738;23;20024;-66
2023/09/01 07:22:29;;;;;;;7.10;6.38;;;18.60;99.90;;;;;;6092750;23;20093;-66
2023/09/01 07:24:55;;;;;;;7.05;6.40;;;18.60;99.90;;;;;;6093056;23;20515;-66
2023/09/01 07:27:21;;;;;;;7.05;6.35;;;18.50;99.90;;;;;;6069401;23;20018;-66
2023/09/01 07:29:48;;;;;;;8.00;6.55;;;18.20;99.90;;;;;;6119508;23;20151;-66
2023/09/01 07:32:15;;;;;;;7.05;5.80;;;18.10;99.90;;;;;;6120001;23;20115;-66
2023/09/01 07:34:40;;;;;;;6.82;6.22;;;18.00;99.90;;;;;;6094498;23;20013;-66
2023/09/01 07:37:06;;;;;;;5.88;5.28;;;17.80;99.90;;;;;;6118306;23;20571;-66
2023/09/01 07:39:32;;;;;;;6.57;5.97;;;17.80;99.90;;;;;;6119607;23;20403;-67
2023/09/01 07:41:58;;;;;;;6.55;5.15;;;17.80;99.90;;;;;;6119770;23;20047;-66
2023/09/01 07:44:24;;;;;;;5.72;5.22;;;17.70;99.90;;;;;;6119502;23;20013;-66
2023/09/01 07:46:49;;;;;;;7.45;5.28;;;17.60;99.90;;;;;;6118229;23;20025;-66
2023/09/01 07:49:15;;;;;;;5.80;5.20;;;17.60;99.90;;;;;;6120119;23;20017;-66
2023/09/01 07:51:42;;;;;;;6.38;5.78;;;17.40;99.90;;;;;;6093338;23;20289;-67
2023/09/01 07:54:08;;;;;;;10.05;5.80;;;17.40;99.90;;;;;;6093726;23;20021;-66
2023/09/01 07:56:34;;;;;;;6.53;5.70;;;17.30;99.90;;;;;;6118787;23;20417;-67
2023/09/01 07:59:00;;;;;;;5.85;5.35;;;17.30;99.90;;;;;;6120159;23;20006;-66
2023/09/01 08:01:26;;;;;;;7.18;5.15;;;17.30;99.90;;;;;;6119262;23;20010;-68
2023/09/01 08:03:51;;;;;;;6.85;5.40;;;17.20;99.90;;;;;;6093488;23;20548;-66
2023/09/01 08:06:17;;;;;;;5.68;4.95;;;17.20;99.90;;;;;;6119197;23;20006;-66
2023/09/01 08:08:42;;;;;;;8.02;5.10;;;17.10;99.90;;;;;;6092535;23;20018;-66
2023/09/01 08:11:08;;;;;;;5.78;4.80;;;17.20;99.90;;;;;;6092386;23;20022;-66
2023/09/01 08:13:33;;;;;;;5.40;4.63;;;17.20;99.90;;;;;;6119895;23;20009;-66
2023/09/01 08:15:59;;;;;;;5.00;4.00;;;17.30;99.90;;;;;;6119568;23;20014;-66
2023/09/01 08:18:25;;;;;;;4.40;3.70;;;17.30;99.90;;;;;;6119198;23;20089;-66
2023/09/01 08:20:50;;;;;;;4.78;4.28;;;17.30;99.90;;;;;;6119403;23;20026;-66
2023/09/01 08:23:21;;;;;;;6.03;4.30;;;17.30;99.90;;;;;;6093834;23;20449;-66
2023/09/01 08:25:47;;;;;;;6.03;4.47;;;17.30;99.90;;;;;;6119576;23;20018;-66
2023/09/01 08:28:12;;;;;;;10.82;4.57;;;17.20;99.90;;;;;;6091157;23;20026;-66
2023/09/01 08:30:38;;;;;;;9.23;4.50;;;17.20;99.90;;;;;;6092402;23;20022;-66
2023/09/01 08:33:04;;;;;;;5.22;4.35;;;17.20;99.90;;;;;;6120126;23;20014;-66
2023/09/01 08:35:30;;;;;;;7.93;5.07;;;17.20;99.90;;;;;;6119156;23;20014;-66
2023/09/01 08:37:55;;;;;;;7.00;4.47;;;17.20;99.90;;;;;;6118373;23;20060;-66
2023/09/01 08:40:21;;;;;;;7.30;4.57;;;17.20;99.90;;;;;;6119461;23;20146;-66
2023/09/01 08:42:49;;;;;;;5.53;3.97;;;17.30;99.90;;;;;;6093338;23;20047;-66
2023/09/01 08:45:17;;;;;;;7.38;4.28;;;17.30;99.90;;;;;;6119217;23;20014;-66
2023/09/01 08:47:45;;;;;;;7.47;4.47;;;17.20;99.90;;;;;;6093451;23;20021;-66
2023/09/01 08:50:11;;;;;;;7.18;4.32;;;17.20;99.90;;;;;;6093085;23;20018;-66
2023/09/01 08:52:38;;;;;;;5.93;4.38;;;17.30;99.90;;;;;;6120071;23;20045;-66
2023/09/01 08:55:05;;;;;;;8.50;4.75;;;17.30;99.90;;;;;;6093103;23;20025;-66
2023/09/01 08:57:31;;;;;;;6.93;4.78;;;17.30;99.90;;;;;;6092493;23;20018;-66
2023/09/01 08:59:57;;;;;;;7.88;5.00;;;17.40;99.90;;;;;;6093326;23;20057;-66
2023/09/01 09:02:23;;;;;;;8.43;4.50;;;17.50;99.90;;;;;;6094020;23;20437;-66
2023/09/01 09:04:49;;;;;;;5.95;4.03;;;17.50;99.90;;;;;;6116481;23;20010;-66
2023/09/01 09:07:17;;;;;;;7.47;4.82;;;17.60;99.90;;;;;;6115979;23;20021;-66
2023/09/01 09:09:54;;;;;;;6.68;4.75;;;17.60;99.90;;;;;;6094262;23;20021;-66
2023/09/01 09:12:33;;;;;;;10.27;4.80;;;17.70;99.90;;;;;;6120164;23;20010;-66
2023/09/01 09:14:58;;;;;;;5.10;3.55;;;17.80;99.90;;;;;;6093554;23;20014;-66
2023/09/01 09:17:39;;;;;;;7.53;3.92;;;18.00;99.90;;;;;;6093455;23;20014;-66
2023/09/01 09:20:06;;;;;;;7.18;4.50;;;18.10;99.90;;;;;;6093676;23;20029;-66
2023/09/01 09:22:48;;;;;;;7.18;4.35;;;18.30;99.90;;;;;;6119993;23;20348;-66
2023/09/01 09:25:30;;;;;;;5.57;4.45;;;18.50;99.90;;;;;;6119305;23;20014;-66
2023/09/01 09:27:58;;;;;;;6.13;3.97;;;18.50;99.90;;;;;;6093237;23;20021;-66
2023/09/01 09:30:27;;;;;;;6.20;4.88;;;18.50;99.90;;;;;;6093345;23;20093;-66
2023/09/01 09:33:06;;;;;;;5.53;3.97;;;18.60;99.90;;;;;;6093676;23;20097;-66
2023/09/01 09:35:48;;;;;;;8.68;5.88;;;18.60;99.90;;;;;;6093432;23;20024;-66
2023/09/01 09:38:14;;;;;;;10.32;7.95;;;18.60;99.90;;;;;;6119199;23;20076;-66
2023/09/01 09:40:39;;;;;;;9.90;6.55;;;18.40;99.90;;;;;;6093360;23;20349;-66
2023/09/01 09:43:08;;;;;;;7.53;5.70;;;18.40;99.90;;;;;;6120391;23;20014;-66
2023/09/01 09:45:34;;;;;;;8.60;6.80;;;18.30;99.90;;;;;;6119390;23;20068;-66
2023/09/01 09:48:02;;;;;;;9.98;7.57;;;18.30;99.90;;;;;;6093278;23;20101;-66
2023/09/01 09:50:29;;;;;;;9.85;6.85;;;18.30;99.90;;;;;;6119203;23;20064;-66
2023/09/01 09:52:58;;;;;;;11.05;6.40;;;18.40;99.90;;;;;;6093921;23;20014;-66
2023/09/01 09:55:27;;;;;;;7.43;5.80;;;18.50;99.90;;;;;;6093110;23;20021;-66
2023/09/01 09:58:03;;;;;;;8.40;6.22;;;18.40;99.90;;;;;;6119154;23;20391;-66
2023/09/01 10:00:30;;;;;;;7.65;5.85;;;18.40;99.90;;;;;;6119306;23;20067;-66
2023/09/01 10:03:01;;;;;;;13.23;5.82;;;18.40;99.90;;;;;;6093655;23;20026;-66
2023/09/01 10:05:31;;;;;;;10.80;5.20;;;18.60;99.90;;;;;;6093089;23;20068;-66
2023/09/01 10:08:00;;;;;;;10.80;5.43;;;18.70;99.90;;;;;;6092928;23;20057;-67
2023/09/01 10:10:26;;;;;;;6.70;4.70;;;18.60;99.90;;;;;;6118445;23;20105;-67
2023/09/01 10:12:52;;;;;;;8.60;6.00;;;18.60;99.90;;;;;;6119822;23;20010;-66
2023/09/01 10:15:17;;;;;;;7.95;5.13;;;18.60;99.90;;;;;;6092627;23;20439;-67
2023/09/01 10:17:46;;;;;;;10.20;5.78;;;18.50;99.90;;;;;;6092578;23;20017;-67
2023/09/01 10:20:12;;;;;;;8.85;6.10;;;18.50;99.90;;;;;;6119338;23;20426;-66
2023/09/01 10:22:41;;;;;;;9.13;6.50;;;18.60;99.90;;;;;;6120396;23;20021;-67
2023/09/01 10:25:19;;;;;;;15.00;7.82;;;18.60;99.90;;;;;;6093230;23;20018;-67
2023/09/01 10:28:07;;;;;;;16.35;7.35;;;18.50;99.90;;;;;;6093417;23;20057;-67
2023/09/01 10:30:36;;;;;;;9.77;6.63;;;18.40;99.90;;;;;;6119521;23;20010;-66
2023/09/01 10:33:07;;;;;;;11.18;7.60;;;18.50;99.90;;;;;;6093940;23;20483;-66
2023/09/01 10:35:50;;;;;;;10.57;8.32;;;18.60;99.90;;;;;;6093614;23;20014;-67
2023/09/01 10:38:23;;;;;;;10.48;7.65;;;18.60;99.90;;;;;;6118609;23;20010;-67
2023/09/01 10:40:53;;;;;;;14.00;7.85;;;18.60;99.90;;;;;;6119530;23;20018;-67
2023/09/01 10:43:44;;;;;;;11.75;8.35;;;18.70;99.90;;;;;;6120099;23;20029;-66
2023/09/01 10:46:18;;;;;;;15.93;8.57;;;18.70;99.90;;;;;;6119312;23;20018;-67
2023/09/01 10:48:51;;;;;;;10.80;9.25;;;18.70;99.90;;;;;;6092715;23;20026;-67
2023/09/01 10:51:21;;;;;;;12.27;9.45;;;18.70;99.90;;;;;;6092946;23;20446;-67
2023/09/01 10:53:51;;;;;;;14.27;8.73;;;18.60;99.90;;;;;;6119992;23;20010;-67
2023/09/01 10:56:17;;;;;;;11.60;8.30;;;18.60;99.90;;;;;;6092832;23;20013;-67
2023/09/01 10:58:48;;;;;;;12.77;7.82;;;18.50;99.90;;;;;;6118976;23;20037;-67
2023/09/01 11:01:32;;;;;;;10.40;6.90;;;18.40;99.90;;;;;;6119274;23;20021;-67
2023/09/01 11:04:13;;;;;;;10.00;6.75;;;18.60;99.90;;;;;;6093599;23;20032;-67
2023/09/01 11:06:58;;;;;;;12.45;7.05;;;18.70;99.90;;;;;;6092359;23;20457;-67
2023/09/01 11:09:33;;;;;;;12.48;7.97;;;18.80;99.90;;;;;;6119576;23;20056;-66
2023/09/01 11:11:59;;;;;;;11.68;6.90;;;18.90;99.90;;;;;;6093414;23;20014;-67
2023/09/01 11:14:25;;;;;;;13.82;7.43;;;18.90;99.90;;;;;;6094259;23;20018;-67
2023/09/01 11:16:50;;;;;;;11.00;6.70;;;19.00;99.90;;;;;;6091963;23;20136;-67
2023/09/01 11:19:16;;;;;;;10.80;6.22;;;19.00;99.90;;;;;;6119314;23;20072;-67
2023/09/01 11:21:41;;;;;;;9.48;5.65;;;19.20;99.90;;;;;;6092807;23;20022;-66
2023/09/01 11:24:07;;;;;;;8.85;5.70;;;19.30;99.90;;;;;;6093808;23;20088;-66
2023/09/01 11:26:37;;;;;;;10.13;5.53;;;19.30;99.90;;;;;;6092262;23;20062;-67
2023/09/01 11:29:06;;;;;;;6.35;5.47;;;19.40;99.90;;;;;;6119752;23;20022;-67
2023/09/01 11:31:39;;;;;;;9.30;6.32;;;19.50;99.90;;;;;;6093056;23;20570;-67
2023/09/01 11:34:05;;;;;;;10.52;7.13;;;19.30;99.90;;;;;;6119197;23;20445;-67
2023/09/01 11:36:31;;;;;;;8.23;5.78;;;19.30;99.90;;;;;;6092187;23;20014;-66
2023/09/01 11:38:57;;;;;;;8.70;6.43;;;19.30;99.90;;;;;;6092860;23;20060;-67
2023/09/01 11:41:23;;;;;;;10.48;6.50;;;19.30;99.90;;;;;;6092519;23;20048;-67
2023/09/01 11:43:50;;;;;;;9.43;6.15;;;19.40;99.90;;;;;;6119256;23;20014;-67
2023/09/01 11:46:16;;;;;;;7.40;5.28;;;19.40;99.90;;;;;;6116311;23;20013;-67
2023/09/01 11:48:46;;;;;;;10.25;5.97;;;19.50;99.90;;;;;;6118690;23;20093;-67
2023/09/01 11:51:12;;;;;;;7.95;5.43;;;19.60;99.90;;;;;;6093834;23;20101;-67
2023/09/01 11:53:37;;;;;;;6.25;4.80;;;19.80;99.90;;;;;;6120335;23;20095;-67
2023/09/01 11:56:22;;;;;;;8.00;5.28;;;19.80;99.90;;;;;;6119759;23;20016;-67
2023/09/01 11:58:52;;;;;;;8.95;5.60;;;19.80;99.90;;;;;;6093368;23;20014;-67
2023/09/01 12:01:20;;;;;;;8.75;5.35;;;19.90;99.90;;;;;;6118947;23;20504;-67
2023/09/01 12:03:49;;;;;;;7.45;5.13;;;19.90;99.90;;;;;;6093953;23;20025;-67
2023/09/01 12:06:25;;;;;;;7.70;5.68;;;19.90;99.90;;;;;;6069356;23;20010;-67
2023/09/01 12:09:09;;;;;;;8.65;4.78;;;20.00;99.90;;;;;;6092805;23;20091;-67
2023/09/01 12:11:34;;;;;;;6.35;4.75;;;19.90;99.90;;;;;;6119352;23;20121;-67
2023/09/01 12:14:19;;;;;;;9.70;4.45;;;20.00;99.90;;;;;;6093959;23;20046;-67
2023/09/01 12:16:45;;;;;;;7.78;4.82;;;20.00;99.90;;;;;;6118926;23;20014;-67
2023/09/01 12:19:10;;;;;;;7.90;4.57;;;20.00;99.90;;;;;;6119667;23;20014;-67
2023/09/01 12:21:36;;;;;;;7.03;4.45;;;20.00;99.90;;;;;;6093105;23;20018;-67
2023/09/01 12:24:05;;;;;;;8.85;4.43;;;20.10;99.90;;;;;;6120283;23;20503;-67
2023/09/01 12:26:31;;;;;;;8.07;4.57;;;20.10;99.90;;;;;;6118844;23;20010;-67
2023/09/01 12:28:56;;;;;;;6.70;3.92;;;20.30;99.90;;;;;;6119308;23;20526;-67
2023/09/01 12:31:22;;;;;;;6.82;4.32;;;20.30;99.90;;;;;;6069703;23;20361;-67
2023/09/01 12:33:48;;;;;;;8.07;4.40;;;20.40;99.90;;;;;;6119946;23;20349;-67
2023/09/01 12:36:13;;;;;;;10.35;4.80;;;20.30;99.90;;;;;;6119194;23;20014;-67
2023/09/01 12:38:39;;;;;;;7.55;3.55;;;20.30;99.90;;;;;;6119357;23;20037;-67
2023/09/01 12:41:04;;;;;;;7.35;4.03;;;20.50;99.90;;;;;;6119497;23;20025;-66
2023/09/01 12:43:30;;;;;;;6.78;3.15;;;20.50;99.90;;;;;;6119641;23;20587;-67
2023/09/01 12:45:56;;;;;;;6.28;3.42;;;20.60;99.90;;;;;;6119550;23;20010;-67
2023/09/01 12:48:21;;;;;;;5.13;3.22;;;20.60;99.90;;;;;;6092693;23;20013;-67